createdAt,value
2017-10-31T00:01:09.904Z,35.70
2017-10-31T00:03:37.344Z,35.40
2017-10-31T00:06:04.765Z,35.30
2017-10-31T00:08:32.212Z,35.10
2017-10-31T00:10:59.627Z,34.80
2017-10-31T00:13:27.066Z,34.70
2017-10-31T00:15:54.483Z,34.70
2017-10-31T00:18:22.067Z,34.90
2017-10-31T00:20:49.459Z,34.50
2017-10-31T00:23:16.893Z,34.70
2017-10-31T00:25:44.324Z,34.90
2017-10-31T00:28:11.752Z,35.40
2017-10-31T00:30:39.316Z,35.20
2017-10-31T00:33:07.508Z,35.40
2017-10-31T00:35:34.941Z,35.30
2017-10-31T00:38:02.368Z,36.00
2017-10-31T00:40:29.783Z,36.20
2017-10-31T00:42:57.273Z,36.20
2017-10-31T00:45:24.700Z,36.00
2017-10-31T00:47:52.120Z,35.70
2017-10-31T00:50:20.313Z,36.50
2017-10-31T00:52:47.715Z,36.50
2017-10-31T00:55:15.144Z,36.60
2017-10-31T00:57:42.555Z,36.50
2017-10-31T01:00:10.752Z,36.90
2017-10-31T01:02:38.168Z,36.70
2017-10-31T01:05:05.695Z,36.70
2017-10-31T01:07:33.138Z,36.70
2017-10-31T01:10:00.548Z,37.40
2017-10-31T01:12:27.972Z,37.50
2017-10-31T01:14:55.409Z,37.70
2017-10-31T01:17:22.829Z,37.30
2017-10-31T01:19:51.027Z,36.90
2017-10-31T01:22:18.446Z,36.80
2017-10-31T01:24:45.884Z,37.10
2017-10-31T01:27:13.313Z,37.40
2017-10-31T01:29:40.732Z,38.10
2017-10-31T01:32:08.148Z,38.10
2017-10-31T01:34:35.577Z,38.00
2017-10-31T01:37:02.993Z,37.90
2017-10-31T01:39:30.467Z,38.10
2017-10-31T01:41:57.865Z,38.30
2017-10-31T01:44:25.287Z,38.10
2017-10-31T01:46:52.732Z,37.70
2017-10-31T01:49:20.143Z,37.70
2017-10-31T01:51:47.563Z,37.70
2017-10-31T01:54:14.985Z,38.20
2017-10-31T01:56:42.413Z,38.90
2017-10-31T01:59:09.836Z,40.10
2017-10-31T02:01:37.265Z,39.80
2017-10-31T02:04:04.680Z,40.30
2017-10-31T02:06:32.104Z,39.90
2017-10-31T02:08:59.531Z,39.00
2017-10-31T02:11:26.970Z,39.50
2017-10-31T02:13:54.367Z,39.80
2017-10-31T02:16:21.798Z,38.10
2017-10-31T02:18:49.212Z,37.20
2017-10-31T02:21:16.660Z,37.10
2017-10-31T02:23:44.077Z,37.30
2017-10-31T02:26:11.501Z,37.30
2017-10-31T02:28:38.929Z,36.90
2017-10-31T02:31:06.358Z,36.50
2017-10-31T02:33:33.808Z,36.90
2017-10-31T02:36:01.236Z,37.30
2017-10-31T02:51:57.989Z,37.40
2017-10-31T02:54:25.437Z,38.20
2017-10-31T02:56:52.855Z,38.60
2017-10-31T02:59:20.282Z,38.40
2017-10-31T03:01:47.704Z,38.80
2017-10-31T03:04:15.149Z,38.80
2017-10-31T03:06:42.565Z,38.70
2017-10-31T03:09:09.992Z,38.80
2017-10-31T03:11:37.404Z,38.60
2017-10-31T03:14:04.832Z,38.50
2017-10-31T03:16:32.248Z,38.60
2017-10-31T03:18:59.676Z,38.90
2017-10-31T03:21:27.093Z,38.60
2017-10-31T03:23:54.516Z,38.70
2017-10-31T03:26:21.933Z,38.60
2017-10-31T03:28:49.368Z,39.30
2017-10-31T03:31:16.794Z,39.90
2017-10-31T03:33:44.221Z,39.90
2017-10-31T03:36:11.642Z,40.80
2017-10-31T03:38:39.837Z,40.00
2017-10-31T03:41:07.272Z,40.00
2017-10-31T03:43:34.704Z,39.30
2017-10-31T03:46:02.125Z,39.60
2017-10-31T03:48:29.573Z,41.00
2017-10-31T03:50:57.150Z,40.60
2017-10-31T03:53:24.560Z,40.70
2017-10-31T03:55:51.984Z,40.10
2017-10-31T03:58:19.398Z,39.90
2017-10-31T04:00:46.825Z,39.80
2017-10-31T04:03:15.018Z,39.90
2017-10-31T04:05:42.437Z,39.80
2017-10-31T04:08:09.850Z,39.70
2017-10-31T04:10:37.299Z,39.80
2017-10-31T04:13:04.700Z,39.70
2017-10-31T04:15:32.124Z,40.00
2017-10-31T04:17:59.559Z,40.60
2017-10-31T04:20:26.996Z,40.60
2017-10-31T04:22:54.416Z,40.50
2017-10-31T04:25:21.845Z,40.70
2017-10-31T04:27:49.283Z,41.50
2017-10-31T04:30:16.695Z,41.10
2017-10-31T04:32:44.896Z,40.90
2017-10-31T04:35:12.321Z,40.20
2017-10-31T04:37:39.752Z,40.10
2017-10-31T04:40:07.167Z,40.60
2017-10-31T04:42:34.596Z,40.60
2017-10-31T04:45:02.778Z,41.40
2017-10-31T04:47:30.399Z,41.30
2017-10-31T04:49:57.825Z,42.40
2017-10-31T04:52:25.259Z,43.80
2017-10-31T04:54:52.714Z,43.90
2017-10-31T04:57:20.899Z,42.80
2017-10-31T04:59:48.300Z,42.70
2017-10-31T05:02:15.725Z,43.00
2017-10-31T05:04:43.185Z,42.50
2017-10-31T05:07:10.613Z,42.00
2017-10-31T05:09:38.040Z,40.80
2017-10-31T05:12:05.452Z,40.50
2017-10-31T05:14:32.873Z,40.50
2017-10-31T05:17:00.289Z,40.50
2017-10-31T05:19:27.725Z,40.70
2017-10-31T05:21:55.136Z,40.90
2017-10-31T05:24:22.559Z,41.00
2017-10-31T05:26:49.976Z,40.70
2017-10-31T05:29:17.404Z,40.50
2017-10-31T05:31:45.584Z,39.60
2017-10-31T05:34:13.028Z,39.60
2017-10-31T05:36:40.438Z,41.00
2017-10-31T05:39:07.852Z,41.40
2017-10-31T05:41:35.275Z,40.90
2017-10-31T05:44:02.696Z,40.40
2017-10-31T05:46:30.192Z,39.50
2017-10-31T05:48:57.604Z,39.50
2017-10-31T05:51:25.028Z,40.20
2017-10-31T05:53:52.445Z,39.50
2017-10-31T05:56:19.884Z,39.50
2017-10-31T05:58:48.186Z,40.10
2017-10-31T06:01:15.608Z,39.80
2017-10-31T06:03:43.027Z,40.10
2017-10-31T06:06:10.460Z,40.80
2017-10-31T06:08:37.905Z,41.40
2017-10-31T06:11:05.364Z,41.50
2017-10-31T06:13:32.776Z,41.20
2017-10-31T06:16:00.202Z,40.80
2017-10-31T06:18:31.033Z,40.70
2017-10-31T06:20:58.450Z,40.60
2017-10-31T06:23:31.480Z,40.40
2017-10-31T06:39:21.395Z,40.50
2017-10-31T06:41:48.821Z,41.70
2017-10-31T06:44:16.245Z,42.00
2017-10-31T06:46:43.657Z,42.00
2017-10-31T06:49:11.084Z,41.90
2017-10-31T06:51:38.508Z,41.90
2017-10-31T06:54:05.936Z,42.20
2017-10-31T06:56:33.470Z,42.50
2017-10-31T06:59:00.918Z,43.00
2017-10-31T07:01:28.346Z,43.00
2017-10-31T07:03:55.765Z,43.40
2017-10-31T07:06:23.191Z,43.60
2017-10-31T07:08:50.603Z,43.80
2017-10-31T07:11:18.821Z,43.60
2017-10-31T07:13:46.264Z,43.60
2017-10-31T07:16:13.691Z,42.70
2017-10-31T07:18:41.109Z,43.30
2017-10-31T07:21:08.537Z,42.70
2017-10-31T07:23:35.961Z,43.00
2017-10-31T07:26:04.165Z,43.20
2017-10-31T07:28:31.625Z,43.10
2017-10-31T07:30:59.089Z,43.00
2017-10-31T07:33:26.826Z,43.70
2017-10-31T07:35:54.256Z,44.80
2017-10-31T07:38:21.709Z,45.00
2017-10-31T07:40:49.128Z,46.20
2017-10-31T07:43:16.564Z,47.00
2017-10-31T07:45:44.011Z,46.60
2017-10-31T07:48:11.534Z,46.40
2017-10-31T07:50:38.954Z,45.50
2017-10-31T07:53:06.393Z,45.20
2017-10-31T07:55:33.823Z,44.00
2017-10-31T07:58:02.234Z,44.20
2017-10-31T08:00:29.639Z,44.20
2017-10-31T08:02:57.858Z,44.30
2017-10-31T08:05:25.284Z,44.20
2017-10-31T08:07:52.725Z,45.00
2017-10-31T08:10:20.141Z,44.40
2017-10-31T08:12:47.584Z,42.60
2017-10-31T08:15:15.000Z,41.00
2017-10-31T08:17:43.199Z,40.50
2017-10-31T08:20:10.612Z,40.50
2017-10-31T08:22:38.057Z,40.30
2017-10-31T08:25:05.481Z,39.00
2017-10-31T08:27:32.912Z,37.10
2017-10-31T08:30:00.346Z,38.60
2017-10-31T08:32:28.562Z,37.50
2017-10-31T08:34:55.979Z,37.50
2017-10-31T08:37:23.405Z,36.40
2017-10-31T08:39:51.618Z,35.50
2017-10-31T08:42:19.311Z,35.50
2017-10-31T08:44:46.759Z,34.90
2017-10-31T08:47:14.184Z,35.00
2017-10-31T08:49:41.624Z,36.10
2017-10-31T08:52:09.052Z,34.00
2017-10-31T08:54:36.500Z,32.70
2017-10-31T08:57:03.928Z,32.20
2017-10-31T08:59:31.368Z,32.40
2017-10-31T09:01:58.792Z,32.20
2017-10-31T09:04:26.232Z,32.10
2017-10-31T09:06:53.780Z,31.60
2017-10-31T09:09:21.232Z,32.80
2017-10-31T09:11:48.792Z,31.80
2017-10-31T09:14:16.259Z,31.30
2017-10-31T09:16:43.709Z,32.00
2017-10-31T09:19:11.151Z,31.50
2017-10-31T09:21:38.925Z,29.40
2017-10-31T09:24:06.352Z,29.40
2017-10-31T09:26:33.792Z,29.20
2017-10-31T09:29:01.222Z,28.70
2017-10-31T09:31:28.652Z,29.00
2017-10-31T09:33:56.084Z,29.30
2017-10-31T09:36:23.515Z,29.60
2017-10-31T09:38:51.699Z,29.20
2017-10-31T09:41:19.135Z,29.20
2017-10-31T09:43:46.553Z,27.70
2017-10-31T09:46:14.027Z,27.90
2017-10-31T09:48:41.446Z,26.60
2017-10-31T09:51:08.910Z,26.60
2017-10-31T09:53:36.341Z,25.40
2017-10-31T09:56:03.788Z,26.90
2017-10-31T09:58:31.227Z,25.30
2017-10-31T10:00:59.420Z,24.20
2017-10-31T10:03:26.870Z,24.60
2017-10-31T10:05:54.291Z,24.70
2017-10-31T10:08:21.724Z,23.90
2017-10-31T10:10:49.163Z,25.30
2017-10-31T10:13:16.595Z,23.30
2017-10-31T10:15:44.029Z,24.60
2017-10-31T10:18:11.596Z,24.20
2017-10-31T10:20:39.121Z,25.20
2017-10-31T10:23:06.572Z,22.80
2017-10-31T10:25:33.995Z,21.80
2017-10-31T10:28:01.449Z,22.30
2017-10-31T10:30:28.877Z,21.60
2017-10-31T10:32:56.316Z,20.50
2017-10-31T10:35:23.756Z,20.50
2017-10-31T10:37:51.185Z,18.90
2017-10-31T10:40:18.627Z,19.80
2017-10-31T10:42:46.049Z,20.40
2017-10-31T10:45:14.257Z,18.60
2017-10-31T10:47:41.696Z,18.40
2017-10-31T10:50:09.123Z,18.20
2017-10-31T10:52:36.566Z,19.00
2017-10-31T10:55:04.001Z,18.30
2017-10-31T10:57:31.436Z,19.70
2017-10-31T10:59:58.880Z,20.10
2017-10-31T11:02:26.323Z,18.60
2017-10-31T11:04:53.723Z,16.10
2017-10-31T11:07:21.165Z,14.80
2017-10-31T11:09:48.589Z,15.90
2017-10-31T11:12:16.020Z,15.30
2017-10-31T11:14:43.452Z,13.90
2017-10-31T11:17:10.893Z,15.40
2017-10-31T11:19:38.310Z,14.40
2017-10-31T11:22:05.735Z,13.70
2017-10-31T11:24:33.168Z,12.30
2017-10-31T11:27:00.589Z,11.70
2017-10-31T11:29:28.828Z,10.30
2017-10-31T11:31:57.771Z,9.90
2017-10-31T11:34:25.200Z,9.90
2017-10-31T11:36:52.615Z,9.80
2017-10-31T11:39:20.065Z,8.20
2017-10-31T11:41:47.609Z,9.10
2017-10-31T11:44:15.037Z,8.60
2017-10-31T11:46:42.448Z,7.80
2017-10-31T11:49:09.990Z,7.70
2017-10-31T11:51:37.412Z,6.50
2017-10-31T11:54:04.836Z,6.70
2017-10-31T11:56:32.256Z,6.20
2017-10-31T11:58:59.680Z,5.70
2017-10-31T12:01:27.136Z,6.90
2017-10-31T12:03:54.605Z,8.00
2017-10-31T12:06:22.024Z,7.00
2017-10-31T12:08:50.212Z,4.70
2017-10-31T12:11:17.640Z,4.60
2017-10-31T12:13:45.811Z,5.80
2017-10-31T12:16:14.740Z,6.00
2017-10-31T12:18:42.152Z,6.00
2017-10-31T12:21:09.601Z,5.30
2017-10-31T12:23:37.017Z,5.10
2017-10-31T12:26:04.449Z,4.30
2017-10-31T12:28:32.688Z,5.20
2017-10-31T12:31:00.113Z,5.10
2017-10-31T12:33:27.523Z,1.60
2017-10-31T12:35:54.952Z,2.10
2017-10-31T12:38:22.375Z,1.00
2017-10-31T12:40:50.178Z,1.00
2017-10-31T12:43:17.579Z,1.00
2017-10-31T12:45:44.989Z,1.00
2017-10-31T12:48:12.419Z,1.00
2017-10-31T12:50:39.858Z,1.00
2017-10-31T12:53:07.269Z,1.00
2017-10-31T12:55:34.679Z,1.00
2017-10-31T12:58:02.113Z,1.00
2017-10-31T13:00:29.595Z,1.00
2017-10-31T13:02:57.016Z,1.00
2017-10-31T13:05:24.439Z,1.00
2017-10-31T13:07:51.859Z,1.00
2017-10-31T13:10:19.277Z,1.00
2017-10-31T13:12:47.463Z,1.00
2017-10-31T13:15:14.885Z,1.00
2017-10-31T13:17:42.320Z,1.00
2017-10-31T13:20:09.739Z,1.00
2017-10-31T13:22:37.155Z,1.00
2017-10-31T13:25:04.580Z,1.00
2017-10-31T13:27:33.203Z,1.00
2017-10-31T13:30:01.700Z,1.00
2017-10-31T13:32:30.103Z,1.00
2017-10-31T13:34:58.453Z,1.00
2017-10-31T13:37:27.812Z,1.00
2017-10-31T13:39:56.136Z,1.00
2017-10-31T13:42:24.516Z,1.00
2017-10-31T13:44:51.943Z,1.00
2017-10-31T13:47:19.445Z,1.00
2017-10-31T13:49:47.006Z,1.00
2017-10-31T13:52:15.303Z,1.00
2017-10-31T13:54:42.737Z,1.00
2017-10-31T13:57:10.152Z,1.00
2017-10-31T13:59:38.337Z,1.00
2017-10-31T14:02:06.357Z,1.00
2017-10-31T14:04:34.544Z,1.00
2017-10-31T14:07:03.184Z,1.00
2017-10-31T14:09:31.916Z,1.00
2017-10-31T14:12:00.425Z,1.00
2017-10-31T14:14:28.613Z,1.00
2017-10-31T14:16:56.904Z,1.00
2017-10-31T14:19:24.939Z,1.00
2017-10-31T14:21:54.201Z,1.00
2017-10-31T14:24:21.600Z,1.00
2017-10-31T14:26:49.028Z,1.00
2017-10-31T14:29:16.761Z,1.00
2017-10-31T14:31:44.188Z,1.00
2017-10-31T14:34:11.612Z,1.00
2017-10-31T14:36:39.034Z,1.00
2017-10-31T14:39:06.447Z,1.00
2017-10-31T14:41:34.649Z,1.00
2017-10-31T14:44:02.073Z,1.00
2017-10-31T14:46:29.491Z,1.00
2017-10-31T14:48:56.912Z,1.00
2017-10-31T14:51:24.323Z,1.00
2017-10-31T14:53:51.743Z,1.00
2017-10-31T14:56:19.160Z,1.00
2017-10-31T14:58:46.584Z,1.00
2017-10-31T15:01:14.000Z,1.00
2017-10-31T15:03:41.436Z,1.00
2017-10-31T15:06:08.848Z,1.00
2017-10-31T15:08:36.276Z,1.00
2017-10-31T15:11:03.692Z,1.00
2017-10-31T15:13:31.169Z,1.00
2017-10-31T15:15:58.581Z,1.00
2017-10-31T15:18:26.004Z,1.00
2017-10-31T15:20:53.423Z,1.00
2017-10-31T15:23:20.872Z,1.00
2017-10-31T15:25:48.283Z,1.00
2017-10-31T15:28:15.700Z,1.00
2017-10-31T15:30:43.132Z,1.00
2017-10-31T15:33:10.544Z,1.00
2017-10-31T15:35:37.970Z,1.00
2017-10-31T15:38:05.385Z,1.00
2017-10-31T15:40:33.582Z,1.00
2017-10-31T15:43:01.001Z,1.00
2017-10-31T15:45:28.436Z,1.30
2017-10-31T15:47:55.839Z,2.00
2017-10-31T15:50:23.274Z,2.80
2017-10-31T15:52:50.683Z,3.70
2017-10-31T15:55:18.107Z,4.20
2017-10-31T15:57:45.544Z,4.80
2017-10-31T16:00:13.988Z,6.30
2017-10-31T16:02:41.480Z,6.20
2017-10-31T16:05:08.996Z,7.00
2017-10-31T16:07:36.580Z,7.50
2017-10-31T16:10:04.254Z,8.10
2017-10-31T16:12:31.777Z,8.40
2017-10-31T16:14:59.172Z,8.70
2017-10-31T16:17:26.607Z,8.70
2017-10-31T16:19:54.028Z,9.70
2017-10-31T16:22:21.489Z,9.70
2017-10-31T16:24:48.925Z,10.10
2017-10-31T16:27:17.211Z,10.00
2017-10-31T16:29:44.813Z,9.90
2017-10-31T16:32:12.304Z,9.90
2017-10-31T16:34:39.776Z,10.20
2017-10-31T16:37:07.240Z,10.60
2017-10-31T16:39:34.653Z,10.60
2017-10-31T16:42:02.080Z,10.70
2017-10-31T16:44:29.838Z,10.90
2017-10-31T16:46:57.380Z,11.70
2017-10-31T16:49:24.828Z,11.20
2017-10-31T16:51:52.251Z,11.30
2017-10-31T16:54:19.680Z,11.70
2017-10-31T16:56:47.117Z,12.00
2017-10-31T16:59:14.539Z,12.10
2017-10-31T17:01:42.033Z,12.60
2017-10-31T17:04:09.448Z,13.10
2017-10-31T17:06:36.871Z,13.60
2017-10-31T17:09:05.077Z,15.20
2017-10-31T17:11:32.515Z,15.00
2017-10-31T17:13:59.949Z,15.30
2017-10-31T17:16:27.375Z,16.10
2017-10-31T17:18:54.812Z,16.40
2017-10-31T17:21:22.249Z,16.80
2017-10-31T17:23:49.684Z,17.30
2017-10-31T17:26:17.871Z,17.00
2017-10-31T17:28:45.293Z,16.90
2017-10-31T17:31:12.728Z,16.90
2017-10-31T17:33:40.301Z,17.20
2017-10-31T17:36:07.740Z,17.10
2017-10-31T17:38:35.258Z,17.10
2017-10-31T17:41:02.674Z,17.40
2017-10-31T17:43:30.104Z,17.20
2017-10-31T17:45:57.561Z,17.60
2017-10-31T17:48:25.001Z,17.90
2017-10-31T17:50:52.436Z,17.90
2017-10-31T17:53:19.865Z,17.60
2017-10-31T17:55:47.305Z,17.60
2017-10-31T17:58:14.724Z,18.10
2017-10-31T18:00:42.167Z,17.90
2017-10-31T18:03:09.600Z,18.00
2017-10-31T18:05:37.024Z,17.70
2017-10-31T18:08:04.459Z,17.50
2017-10-31T18:10:31.884Z,17.70
2017-10-31T18:12:59.891Z,17.90
2017-10-31T18:15:27.294Z,18.90
2017-10-31T18:17:54.728Z,19.50
2017-10-31T18:20:22.156Z,20.00
2017-10-31T18:22:49.591Z,20.30
2017-10-31T18:25:17.016Z,20.60
2017-10-31T18:27:45.216Z,21.10
2017-10-31T18:30:12.639Z,21.00
2017-10-31T18:32:40.085Z,21.50
2017-10-31T18:35:07.524Z,21.80
2017-10-31T18:37:34.966Z,22.00
2017-10-31T18:40:02.395Z,22.10
2017-10-31T18:42:29.829Z,22.30
2017-10-31T18:44:58.025Z,22.90
2017-10-31T18:47:25.452Z,22.90
2017-10-31T18:49:52.959Z,23.20
2017-10-31T18:52:20.384Z,23.20
2017-10-31T18:54:47.832Z,23.10
2017-10-31T18:57:15.284Z,22.80
2017-10-31T18:59:42.728Z,22.60
2017-10-31T19:02:10.161Z,22.60
2017-10-31T19:04:37.600Z,22.80
2017-10-31T19:07:05.035Z,23.60
2017-10-31T19:09:32.477Z,23.70
2017-10-31T19:12:00.657Z,23.90
2017-10-31T19:14:28.076Z,23.90
2017-10-31T19:16:55.512Z,23.70
2017-10-31T19:19:22.951Z,23.70
2017-10-31T19:21:50.373Z,25.10
2017-10-31T19:24:17.800Z,26.60
2017-10-31T19:26:45.219Z,25.20
2017-10-31T19:29:12.661Z,24.40
2017-10-31T19:31:40.116Z,24.80
2017-10-31T19:34:07.557Z,24.70
2017-10-31T19:36:34.983Z,24.40
2017-10-31T19:39:02.428Z,24.20
2017-10-31T19:41:29.861Z,24.40
2017-10-31T19:43:57.307Z,24.40
2017-10-31T19:46:24.741Z,24.40
2017-10-31T19:48:52.161Z,25.00
2017-10-31T19:51:20.353Z,25.80
2017-10-31T19:53:47.945Z,25.80
2017-10-31T19:56:15.360Z,25.80
2017-10-31T19:58:43.556Z,27.10
2017-10-31T20:01:10.993Z,27.10
2017-10-31T20:03:38.426Z,26.50
2017-10-31T20:06:05.856Z,27.10
2017-10-31T20:08:33.281Z,27.20
2017-10-31T20:11:00.725Z,27.20
2017-10-31T20:13:28.160Z,27.00
2017-10-31T20:15:56.365Z,27.50
2017-10-31T20:18:23.806Z,28.00
2017-10-31T20:20:51.245Z,27.30
2017-10-31T20:23:18.709Z,27.30
2017-10-31T20:25:46.156Z,27.40
2017-10-31T20:28:13.581Z,27.20
2017-10-31T20:30:41.030Z,26.90
2017-10-31T20:33:08.455Z,26.60
2017-10-31T20:35:35.888Z,26.60
2017-10-31T20:38:04.097Z,26.60
2017-10-31T20:40:31.525Z,26.50
2017-10-31T20:42:58.964Z,26.70
2017-10-31T20:45:26.393Z,26.90
2017-10-31T20:47:53.840Z,27.10
2017-10-31T20:50:21.264Z,27.90
2017-10-31T20:52:49.476Z,28.00
2017-10-31T20:55:16.905Z,27.90
2017-10-31T20:57:44.344Z,28.00
2017-10-31T21:00:11.780Z,27.90
2017-10-31T21:02:39.986Z,28.90
2017-10-31T21:05:07.396Z,28.90
2017-10-31T21:07:34.833Z,29.10
2017-10-31T21:10:02.258Z,29.20
2017-10-31T21:12:29.713Z,29.40
2017-10-31T21:14:57.189Z,29.30
2017-10-31T21:17:24.623Z,29.30
2017-10-31T21:19:52.071Z,29.30
2017-10-31T21:22:19.512Z,30.00
2017-10-31T21:24:46.950Z,29.40
2017-10-31T21:27:14.390Z,29.50
2017-10-31T21:29:41.811Z,29.60
2017-10-31T21:32:09.239Z,29.50
2017-10-31T21:34:36.685Z,29.60
2017-10-31T21:37:04.894Z,29.30
2017-10-31T21:39:32.324Z,29.30
2017-10-31T21:41:59.763Z,29.00
2017-10-31T21:44:27.208Z,28.50
2017-10-31T21:46:54.623Z,28.00
2017-10-31T21:49:22.102Z,27.80
2017-10-31T21:51:49.508Z,27.60
2017-10-31T21:54:16.950Z,27.30
2017-10-31T21:56:45.184Z,27.50
2017-10-31T21:59:12.655Z,27.40
2017-10-31T22:01:40.271Z,27.20
2017-10-31T22:04:07.748Z,27.40
2017-10-31T22:06:35.188Z,27.60
2017-10-31T22:09:02.620Z,27.70
2017-10-31T22:11:30.059Z,28.00
2017-10-31T22:13:58.269Z,28.20
2017-10-31T22:16:25.718Z,28.10
2017-10-31T22:18:53.148Z,28.00
2017-10-31T22:21:20.577Z,28.40
2017-10-31T22:23:48.029Z,28.50
2017-10-31T22:26:15.491Z,28.70
2017-10-31T22:28:42.925Z,28.80
2017-10-31T22:31:10.372Z,28.90
2017-10-31T22:33:37.794Z,28.90
2017-10-31T22:36:05.980Z,28.90
2017-10-31T22:38:33.421Z,28.90
2017-10-31T22:41:00.852Z,29.00
2017-10-31T22:43:28.284Z,29.10
2017-10-31T22:45:55.717Z,29.20
2017-10-31T22:48:23.156Z,29.20
2017-10-31T22:50:50.572Z,29.20
2017-10-31T22:53:18.014Z,29.40
2017-10-31T22:55:45.439Z,29.30
2017-10-31T22:58:12.881Z,29.40
2017-10-31T23:00:40.308Z,29.30
2017-10-31T23:03:07.749Z,29.40
2017-10-31T23:05:35.167Z,29.60
2017-10-31T23:08:02.883Z,29.70
2017-10-31T23:10:30.312Z,29.70
2017-10-31T23:12:58.178Z,29.50
2017-10-31T23:15:25.603Z,29.50
2017-10-31T23:17:53.041Z,29.40
2017-10-31T23:20:20.484Z,29.30
2017-10-31T23:22:47.912Z,29.20
2017-10-31T23:25:15.352Z,29.90
2017-10-31T23:27:42.779Z,30.10
2017-10-31T23:30:10.222Z,30.40
2017-10-31T23:32:37.643Z,30.30
2017-10-31T23:35:05.853Z,30.40
2017-10-31T23:37:33.287Z,30.30
2017-10-31T23:40:00.723Z,30.70
2017-10-31T23:42:28.153Z,31.00
2017-10-31T23:44:55.598Z,31.50
2017-10-31T23:47:23.024Z,31.60
2017-10-31T23:49:50.447Z,31.50
2017-10-31T23:52:17.881Z,31.40
2017-10-31T23:54:45.414Z,31.40
2017-10-31T23:57:12.856Z,31.20
2017-10-31T23:59:40.311Z,31.10
